Time;durP1;ratioP1;P1;durP2;ratioP2;P2;SDS_P1;SDS_P2;PMS_P1;PMS_P2;Temp;Humidity;BMP_temperature;BMP_pressure;BME280_temperature;BME280_humidity;BME280_pressure;Samples;Min_cycle;Max_cycle;Signal;HPM_P1;HPM_P2
2023/02/23 00:02:05;;;;;;;19.40;16.50;;;11.30;99.90;;;;;;4993589;28;20395;-74
2023/02/23 00:04:32;;;;;;;19.63;16.07;;;11.20;99.90;;;;;;4976188;28;20777;-75
2023/02/23 00:07:00;;;;;;;20.73;17.00;;;11.20;99.90;;;;;;4976222;28;20444;-75
2023/02/23 00:09:33;;;;;;;20.40;16.30;;;11.20;99.90;;;;;;4992417;28;20923;-74
2023/02/23 00:12:06;;;;;;;18.53;16.23;;;11.30;99.90;;;;;;4976353;28;20432;-74
2023/02/23 00:14:34;;;;;;;18.30;15.83;;;11.20;99.90;;;;;;4976161;28;20467;-74
2023/02/23 00:17:00;;;;;;;20.87;16.63;;;11.20;99.90;;;;;;4992292;28;20437;-74
2023/02/23 00:19:26;;;;;;;18.67;15.47;;;11.30;99.90;;;;;;4992274;28;20894;-74
2023/02/23 00:21:57;;;;;;;18.20;16.17;;;11.20;99.90;;;;;;4976457;28;20517;-74
2023/02/23 00:24:25;;;;;;;22.23;17.70;;;11.20;99.90;;;;;;4992240;28;20911;-74
2023/02/23 00:26:54;;;;;;;22.63;17.20;;;11.30;99.90;;;;;;4993281;28;20460;-74
2023/02/23 00:29:23;;;;;;;22.03;18.40;;;11.20;99.90;;;;;;4992260;28;20466;-74
2023/02/23 00:31:55;;;;;;;21.73;16.27;;;11.20;99.90;;;;;;4995918;28;20401;-74
2023/02/23 00:34:22;;;;;;;17.97;15.43;;;11.20;99.90;;;;;;4996906;28;20440;-74
2023/02/23 00:36:53;;;;;;;20.67;17.33;;;11.20;99.90;;;;;;4995796;28;20492;-73
2023/02/23 00:39:25;;;;;;;19.97;16.13;;;11.20;99.90;;;;;;4963870;28;20413;-74
2023/02/23 00:41:55;;;;;;;20.50;16.60;;;11.20;99.90;;;;;;4995633;28;20448;-74
2023/02/23 00:44:26;;;;;;;21.23;17.93;;;11.20;99.90;;;;;;4995661;28;20416;-74
2023/02/23 00:46:54;;;;;;;17.97;16.07;;;11.20;99.90;;;;;;4963943;28;20787;-74
2023/02/23 00:49:25;;;;;;;21.10;17.93;;;11.20;99.90;;;;;;4996887;28;20449;-74
2023/02/23 00:51:52;;;;;;;22.10;16.67;;;11.20;99.90;;;;;;4995572;28;20405;-74
2023/02/23 00:54:20;;;;;;;20.83;17.33;;;11.20;99.90;;;;;;4995154;28;20432;-74
2023/02/23 00:56:49;;;;;;;22.03;16.30;;;11.20;99.90;;;;;;4963133;28;20453;-74
2023/02/23 00:59:18;;;;;;;23.20;17.53;;;11.20;99.90;;;;;;4979237;28;20865;-74
2023/02/23 01:01:46;;;;;;;21.17;17.03;;;11.20;99.90;;;;;;4979068;28;20432;-74
2023/02/23 01:04:12;;;;;;;22.70;17.30;;;11.20;99.90;;;;;;4995276;28;20454;-74
2023/02/23 01:06:40;;;;;;;19.57;16.00;;;11.20;99.90;;;;;;4996335;28;20449;-74
2023/02/23 01:09:12;;;;;;;22.33;17.97;;;11.20;99.90;;;;;;4979000;28;20405;-74
2023/02/23 01:11:46;;;;;;;19.50;16.80;;;11.20;99.90;;;;;;4979729;28;20490;-75
2023/02/23 01:14:15;;;;;;;23.73;16.77;;;11.20;99.90;;;;;;4994922;28;20473;-74
2023/02/23 01:16:41;;;;;;;20.30;16.40;;;11.20;99.90;;;;;;4978952;28;20504;-74
2023/02/23 01:19:09;;;;;;;21.50;16.73;;;11.20;99.90;;;;;;4995034;28;20406;-74
2023/02/23 01:21:38;;;;;;;20.37;16.27;;;11.20;99.90;;;;;;4994905;28;20460;-74
2023/02/23 01:24:05;;;;;;;22.10;17.77;;;11.20;99.90;;;;;;4994817;28;20449;-74
2023/02/23 01:26:41;;;;;;;22.00;16.13;;;11.20;99.90;;;;;;4994924;28;20516;-74
2023/02/23 01:29:14;;;;;;;22.27;17.30;;;11.20;99.90;;;;;;4994786;28;20448;-74
2023/02/23 01:31:43;;;;;;;20.03;16.53;;;11.20;99.90;;;;;;4995983;28;20426;-74
2023/02/23 01:34:13;;;;;;;22.07;17.03;;;11.20;99.90;;;;;;4994868;28;20461;-74
2023/02/23 01:36:42;;;;;;;20.63;16.60;;;11.20;99.90;;;;;;4995677;28;21009;-74
2023/02/23 01:39:14;;;;;;;22.83;16.77;;;11.20;99.90;;;;;;4963233;28;20468;-74
2023/02/23 01:41:43;;;;;;;22.50;16.33;;;11.20;99.90;;;;;;4994011;28;20410;-74
2023/02/23 01:44:11;;;;;;;20.47;17.00;;;11.20;99.90;;;;;;4978794;28;20501;-74
2023/02/23 01:46:40;;;;;;;20.50;16.67;;;11.20;99.90;;;;;;4978365;28;21009;-73
2023/02/23 01:49:39;;;;;;;19.73;16.20;;;11.20;99.90;;;;;;4994458;28;20401;-73
2023/02/23 01:52:10;;;;;;;23.90;18.03;;;11.20;99.90;;;;;;4993236;28;20461;-73
2023/02/23 01:54:38;;;;;;;23.10;16.93;;;11.10;99.90;;;;;;4978084;28;20477;-73
2023/02/23 01:57:06;;;;;;;21.23;17.27;;;11.10;99.90;;;;;;4994389;28;20448;-73
2023/02/23 01:59:38;;;;;;;20.63;17.43;;;11.20;99.90;;;;;;4994257;28;20925;-73
2023/02/23 02:02:06;;;;;;;22.83;18.30;;;11.10;99.90;;;;;;4978536;28;20413;-73
2023/02/23 02:04:43;;;;;;;19.33;15.97;;;11.10;99.90;;;;;;4995398;28;20401;-73
2023/02/23 02:07:16;;;;;;;21.23;15.90;;;11.10;99.90;;;;;;4994127;28;20435;-73
2023/02/23 02:12:32;;;;;;;23.87;17.43;;;11.10;99.90;;;;;;4994069;28;20425;-73
2023/02/23 02:15:03;;;;;;;23.30;19.33;;;11.10;99.90;;;;;;4995076;28;20805;-73
2023/02/23 02:17:40;;;;;;;18.13;15.47;;;11.10;99.90;;;;;;4993819;28;20434;-73
2023/02/23 02:20:45;;;;;;;20.10;17.60;;;11.10;99.90;;;;;;4995070;28;20768;-73
2023/02/23 02:23:48;;;;;;;24.17;19.20;;;11.10;99.90;;;;;;4993973;28;20397;-73
2023/02/23 02:26:44;;;;;;;20.93;17.60;;;11.10;99.90;;;;;;4993678;28;20953;-73
2023/02/23 02:29:17;;;;;;;20.53;17.33;;;11.10;99.90;;;;;;4994061;28;20452;-73
2023/02/23 02:32:22;;;;;;;23.50;19.07;;;11.10;99.90;;;;;;4993823;28;20906;-74
2023/02/23 02:35:00;;;;;;;23.60;18.60;;;11.10;99.90;;;;;;4993509;28;20461;-74
2023/02/23 02:37:34;;;;;;;21.10;16.90;;;11.10;99.90;;;;;;4993463;28;20823;-74
2023/02/23 02:40:21;;;;;;;22.07;17.73;;;11.10;99.90;;;;;;4977351;28;20416;-74
2023/02/23 02:42:58;;;;;;;21.80;17.57;;;11.10;99.90;;;;;;4993409;28;20402;-74
2023/02/23 02:45:38;;;;;;;23.73;17.40;;;11.10;99.90;;;;;;4993178;28;20491;-74
2023/02/23 02:48:16;;;;;;;23.43;17.37;;;11.10;99.90;;;;;;4977555;28;20440;-74
2023/02/23 02:50:49;;;;;;;22.13;18.60;;;11.10;99.90;;;;;;4977263;28;20456;-74
2023/02/23 02:53:27;;;;;;;20.87;18.00;;;11.10;99.90;;;;;;4993228;28;20407;-74
2023/02/23 02:55:58;;;;;;;20.20;17.30;;;11.10;99.90;;;;;;4992996;28;20464;-74
2023/02/23 02:58:28;;;;;;;23.03;18.50;;;11.10;99.90;;;;;;4976791;28;20938;-74
2023/02/23 04:18:55;;;;;;;27.50;20.93;;;11.00;99.90;;;;;;4950378;28;20560;-74
2023/02/23 04:21:21;;;;;;;27.10;20.50;;;11.00;99.90;;;;;;4997127;28;20393;-74
2023/02/23 04:23:47;;;;;;;30.03;22.03;;;11.00;99.90;;;;;;4996051;28;20394;-74
2023/02/23 04:26:15;;;;;;;28.17;21.50;;;11.00;99.90;;;;;;4996150;28;20760;-74
2023/02/23 04:28:44;;;;;;;24.10;20.17;;;11.00;99.90;;;;;;4979854;28;20523;-74
2023/02/23 04:31:10;;;;;;;26.67;21.07;;;11.00;99.90;;;;;;4979860;28;20418;-74
2023/02/23 04:33:39;;;;;;;24.77;19.77;;;11.00;99.90;;;;;;4995969;28;20825;-74
2023/02/23 04:36:07;;;;;;;27.27;21.10;;;11.00;99.90;;;;;;4979379;28;20480;-74
2023/02/23 04:38:38;;;;;;;26.37;20.57;;;11.00;99.90;;;;;;4996825;28;20433;-74
2023/02/23 04:41:04;;;;;;;24.37;19.37;;;11.00;99.90;;;;;;4995820;28;20810;-74
2023/02/23 04:43:30;;;;;;;25.00;18.90;;;11.00;99.90;;;;;;4979429;28;20440;-74
2023/02/23 04:46:01;;;;;;;28.87;20.23;;;11.00;99.90;;;;;;4996749;28;20448;-74
2023/02/23 04:48:27;;;;;;;28.00;20.70;;;11.00;99.90;;;;;;4979352;28;20441;-74
2023/02/23 04:50:56;;;;;;;30.10;20.33;;;11.00;99.90;;;;;;4995734;28;20843;-74
2023/02/23 04:53:22;;;;;;;26.90;19.93;;;11.00;99.90;;;;;;4996693;28;20493;-74
2023/02/23 04:55:50;;;;;;;27.27;20.50;;;11.00;99.90;;;;;;4995289;28;20996;-74
2023/02/23 04:58:16;;;;;;;30.13;20.83;;;11.00;99.90;;;;;;4979079;28;20491;-74
2023/02/23 05:00:47;;;;;;;28.40;20.20;;;11.00;99.90;;;;;;4979066;28;20417;-74
2023/02/23 05:03:19;;;;;;;27.50;19.87;;;11.00;99.90;;;;;;4995225;28;20417;-74
2023/02/23 05:05:47;;;;;;;29.67;21.40;;;11.00;99.90;;;;;;4995345;28;20778;-74
2023/02/23 05:08:13;;;;;;;31.30;21.53;;;11.00;99.90;;;;;;4995151;28;20973;-74
2023/02/23 05:10:41;;;;;;;29.53;21.80;;;11.00;99.90;;;;;;4979041;28;20475;-74
2023/02/23 05:13:09;;;;;;;25.60;19.50;;;11.00;99.90;;;;;;4996252;28;20774;-74
2023/02/23 05:15:37;;;;;;;25.73;19.93;;;11.00;99.90;;;;;;4996017;28;20943;-74
2023/02/23 05:18:08;;;;;;;26.60;20.30;;;11.00;99.90;;;;;;4995267;28;20853;-74
2023/02/23 05:20:36;;;;;;;30.43;21.30;;;10.90;99.90;;;;;;4978869;28;20510;-74
2023/02/23 05:23:04;;;;;;;30.07;21.93;;;10.90;99.90;;;;;;4978818;28;20507;-74
2023/02/23 05:25:35;;;;;;;29.77;21.57;;;10.90;99.90;;;;;;4994992;28;20430;-74
2023/02/23 05:28:01;;;;;;;26.23;20.70;;;11.00;99.90;;;;;;4978353;28;20469;-74
2023/02/23 05:30:27;;;;;;;28.27;21.50;;;11.00;99.90;;;;;;4995325;28;20954;-74
2023/02/23 05:32:55;;;;;;;31.33;21.33;;;11.00;99.90;;;;;;4996111;28;20398;-74
2023/02/23 05:35:24;;;;;;;27.07;21.10;;;11.00;99.90;;;;;;4978485;28;20450;-74
2023/02/23 05:37:54;;;;;;;36.93;22.97;;;10.90;99.90;;;;;;4978899;28;20811;-74
2023/02/23 05:40:20;;;;;;;32.17;22.67;;;10.90;99.90;;;;;;4995708;28;20474;-74
2023/02/23 05:42:46;;;;;;;29.77;23.20;;;10.90;99.90;;;;;;4994740;28;20513;-74
2023/02/23 05:45:13;;;;;;;27.27;19.97;;;11.00;99.90;;;;;;4994434;28;20800;-73
2023/02/23 05:47:42;;;;;;;30.83;21.40;;;10.90;99.90;;;;;;4978434;28;20504;-75
2023/02/23 05:50:10;;;;;;;30.70;20.87;;;11.00;99.90;;;;;;5013881;28;20405;-73
2023/02/23 05:52:40;;;;;;;29.53;20.50;;;10.90;99.90;;;;;;5013998;28;20479;-73
2023/02/23 05:55:10;;;;;;;33.77;23.70;;;10.90;99.90;;;;;;5014778;28;20466;-73
2023/02/23 05:57:37;;;;;;;34.93;23.93;;;11.00;99.90;;;;;;5013651;28;20437;-73
2023/02/23 06:00:05;;;;;;;31.93;23.00;;;10.90;99.90;;;;;;5013847;28;20463;-73
2023/02/23 06:02:35;;;;;;;34.97;23.97;;;10.90;99.90;;;;;;5014971;28;20436;-73
2023/02/23 06:05:01;;;;;;;31.30;22.37;;;10.90;99.90;;;;;;5013748;28;20775;-73
2023/02/23 06:07:32;;;;;;;31.93;23.70;;;10.90;99.90;;;;;;5013534;28;20440;-73
2023/02/23 06:10:00;;;;;;;35.40;24.60;;;10.90;99.90;;;;;;5014808;28;20429;-73
2023/02/23 06:12:29;;;;;;;30.77;22.80;;;10.90;99.90;;;;;;5012718;28;20463;-73
2023/02/23 06:14:55;;;;;;;35.87;25.57;;;10.90;99.90;;;;;;5013392;28;20456;-73
2023/02/23 06:17:24;;;;;;;35.20;25.00;;;10.90;99.90;;;;;;5013566;28;20451;-73
2023/02/23 06:19:52;;;;;;;36.43;25.07;;;10.90;99.90;;;;;;5013607;28;20806;-73
2023/02/23 06:22:18;;;;;;;30.07;23.17;;;10.90;99.90;;;;;;4981141;28;20440;-73
2023/02/23 06:24:44;;;;;;;31.20;21.67;;;10.90;99.90;;;;;;5013476;28;20433;-73
2023/02/23 06:27:11;;;;;;;32.53;22.43;;;10.90;99.90;;;;;;4997081;28;20476;-73
2023/02/23 06:29:37;;;;;;;32.17;23.37;;;10.90;99.90;;;;;;4980669;28;20478;-74
2023/02/23 06:32:05;;;;;;;33.00;22.47;;;10.90;99.90;;;;;;4991013;28;20455;-73
2023/02/23 06:34:33;;;;;;;35.50;23.63;;;10.90;99.90;;;;;;4993265;28;20442;-73
2023/02/23 06:37:01;;;;;;;36.70;23.93;;;10.90;99.90;;;;;;4991937;28;20958;-73
2023/02/23 06:39:29;;;;;;;32.63;22.37;;;10.90;99.90;;;;;;4973951;28;20533;-73
2023/02/23 06:41:55;;;;;;;28.80;21.43;;;10.90;99.90;;;;;;4958140;28;20542;-73
2023/02/23 06:44:23;;;;;;;28.87;22.20;;;10.90;99.90;;;;;;4974128;28;20463;-73
2023/02/23 06:46:54;;;;;;;35.30;23.20;;;10.90;99.90;;;;;;4973782;28;20545;-73
2023/02/23 06:49:22;;;;;;;33.67;22.90;;;10.90;99.90;;;;;;4957622;28;20444;-74
2023/02/23 06:51:48;;;;;;;28.03;21.90;;;10.90;99.90;;;;;;4973872;28;20963;-73
2023/02/23 06:54:19;;;;;;;29.07;21.97;;;10.90;99.90;;;;;;4973619;28;20520;-73
2023/02/23 06:56:45;;;;;;;32.47;22.90;;;10.90;99.90;;;;;;4957600;28;20474;-73
2023/02/23 06:59:11;;;;;;;32.77;22.03;;;10.90;99.90;;;;;;4973808;28;20840;-73
2023/02/23 07:01:41;;;;;;;31.13;22.33;;;10.90;99.90;;;;;;4974785;28;20453;-73
2023/02/23 07:04:10;;;;;;;31.33;22.70;;;10.90;99.90;;;;;;4957704;28;20876;-73
2023/02/23 07:06:38;;;;;;;29.20;21.37;;;10.90;99.90;;;;;;4957950;28;20462;-73
2023/02/23 07:09:06;;;;;;;31.57;24.07;;;10.90;99.90;;;;;;4957755;28;20419;-74
2023/02/23 07:11:35;;;;;;;34.17;23.63;;;10.90;99.90;;;;;;4957682;28;20422;-73
2023/02/23 07:14:03;;;;;;;35.53;22.37;;;10.90;99.90;;;;;;4957416;28;20402;-73
2023/02/23 07:16:29;;;;;;;37.13;24.50;;;10.90;99.90;;;;;;4957343;28;20450;-74
2023/02/23 07:18:58;;;;;;;33.47;24.27;;;10.80;99.90;;;;;;4957539;28;20445;-74
2023/02/23 07:21:30;;;;;;;34.17;23.90;;;10.90;99.90;;;;;;4973663;28;20422;-74
2023/02/23 07:23:57;;;;;;;33.90;24.00;;;10.80;99.90;;;;;;4957538;28;20437;-74
2023/02/23 07:26:26;;;;;;;33.23;23.37;;;10.80;99.90;;;;;;4973492;28;20891;-74
2023/02/23 07:28:57;;;;;;;32.53;22.73;;;10.80;99.90;;;;;;4957209;28;20403;-73
2023/02/23 07:31:27;;;;;;;31.57;22.33;;;10.80;99.90;;;;;;4957957;28;20435;-74
2023/02/23 07:33:56;;;;;;;35.00;22.80;;;10.80;99.90;;;;;;4957376;28;20517;-74
2023/02/23 07:36:27;;;;;;;32.70;23.87;;;10.80;99.90;;;;;;4973368;28;20431;-74
2023/02/23 07:38:53;;;;;;;36.47;24.70;;;10.80;99.90;;;;;;4973033;28;20418;-74
2023/02/23 07:41:21;;;;;;;32.43;21.80;;;10.80;99.90;;;;;;4972850;28;20940;-74
2023/02/23 07:43:47;;;;;;;40.73;23.10;;;10.80;99.90;;;;;;4974307;28;20453;-74
2023/02/23 07:46:16;;;;;;;44.80;25.73;;;10.80;99.90;;;;;;4972720;28;20433;-74
2023/02/23 07:48:45;;;;;;;38.00;23.87;;;10.80;99.90;;;;;;4973030;28;20440;-74
2023/02/23 07:51:19;;;;;;;36.47;24.63;;;10.80;99.90;;;;;;4957506;28;20532;-74
2023/02/23 07:53:45;;;;;;;43.37;26.20;;;10.80;99.90;;;;;;4973055;28;20915;-74
2023/02/23 07:56:13;;;;;;;41.83;24.67;;;10.80;99.90;;;;;;4974039;28;20573;-74
2023/02/23 07:58:44;;;;;;;42.87;25.10;;;10.80;99.90;;;;;;4973200;28;20450;-74
2023/02/23 08:01:14;;;;;;;40.27;23.07;;;10.80;99.90;;;;;;4973432;28;20404;-74
2023/02/23 08:03:48;;;;;;;38.73;22.60;;;10.80;99.90;;;;;;5046801;23;20482;-70
2023/02/23 08:06:15;;;;;;;39.70;23.43;;;10.80;99.90;;;;;;5000768;28;20438;-70
2023/02/23 08:08:47;;;;;;;33.77;23.40;;;10.80;99.90;;;;;;4972357;28;20449;-70
2023/02/23 08:11:14;;;;;;;34.60;20.93;;;10.80;99.90;;;;;;4955354;28;20440;-70
2023/02/23 08:13:40;;;;;;;36.00;21.87;;;10.80;99.90;;;;;;4972912;28;21009;-71
2023/02/23 08:16:11;;;;;;;35.87;23.37;;;10.80;99.90;;;;;;4986930;28;20488;-71
2023/02/23 08:18:37;;;;;;;38.40;24.67;;;10.80;99.90;;;;;;4974947;28;20771;-70
2023/02/23 08:21:06;;;;;;;35.90;23.17;;;10.80;99.90;;;;;;4955216;28;20434;-70
2023/02/23 08:23:36;;;;;;;36.40;24.00;;;10.80;99.90;;;;;;4971490;28;20402;-71
2023/02/23 08:26:06;;;;;;;34.93;22.87;;;10.80;99.90;;;;;;4954282;28;20443;-70
2023/02/23 08:28:32;;;;;;;43.23;25.53;;;10.80;99.90;;;;;;4955453;28;20439;-71
2023/02/23 08:30:58;;;;;;;35.00;23.33;;;10.80;99.90;;;;;;4973581;28;20533;-71
2023/02/23 08:33:30;;;;;;;36.40;23.80;;;10.80;99.90;;;;;;4991897;28;20464;-70
2023/02/23 08:36:01;;;;;;;43.90;27.80;;;10.80;99.90;;;;;;4991668;28;20623;-71
2023/02/23 08:38:30;;;;;;;38.03;24.10;;;10.80;99.90;;;;;;4958662;28;20480;-71
2023/02/23 08:41:00;;;;;;;41.77;26.03;;;10.80;99.90;;;;;;4974588;28;20930;-70
2023/02/23 08:43:31;;;;;;;42.70;24.97;;;10.80;99.90;;;;;;4990870;28;20477;-71
2023/02/23 08:46:00;;;;;;;38.17;25.30;;;10.80;99.90;;;;;;4991256;28;20567;-73
2023/02/23 08:48:28;;;;;;;38.97;24.83;;;10.80;99.90;;;;;;4974953;28;20433;-71
2023/02/23 08:50:58;;;;;;;34.13;21.63;;;10.80;99.90;;;;;;4992600;28;20399;-71
2023/02/23 08:53:28;;;;;;;38.23;23.53;;;10.80;99.90;;;;;;4978245;28;20430;-71
2023/02/23 08:56:05;;;;;;;39.10;22.40;;;10.80;99.90;;;;;;4977925;28;20461;-71
2023/02/23 08:58:35;;;;;;;36.23;24.10;;;10.80;99.90;;;;;;4962076;28;20811;-70
2023/02/23 09:01:06;;;;;;;43.77;26.07;;;10.80;99.90;;;;;;4961255;28;20436;-71
2023/02/23 09:03:35;;;;;;;35.77;22.30;;;10.80;99.90;;;;;;4977716;28;20477;-71
2023/02/23 09:06:10;;;;;;;40.47;23.37;;;10.80;99.90;;;;;;4977618;28;20425;-71
2023/02/23 09:08:38;;;;;;;34.27;23.40;;;10.80;99.90;;;;;;4991197;28;20442;-70
2023/02/23 09:11:06;;;;;;;35.90;24.37;;;10.80;99.90;;;;;;4994822;28;20393;-71
2023/02/23 09:13:32;;;;;;;37.23;23.23;;;10.80;99.90;;;;;;4991002;28;20508;-71
2023/02/23 09:15:58;;;;;;;34.23;23.00;;;10.80;99.90;;;;;;4952617;28;20473;-70
2023/02/23 09:18:28;;;;;;;39.33;22.70;;;10.80;99.90;;;;;;4968406;28;20453;-71
2023/02/23 09:20:54;;;;;;;35.10;21.97;;;10.80;99.90;;;;;;4994877;28;20441;-71
2023/02/23 09:23:23;;;;;;;37.07;22.93;;;10.80;99.90;;;;;;4993926;28;20429;-70
2023/02/23 09:25:51;;;;;;;35.33;22.73;;;10.80;99.90;;;;;;4977274;28;20461;-71
2023/02/23 09:28:20;;;;;;;35.53;22.90;;;10.80;99.90;;;;;;4977741;28;20919;-71
2023/02/23 09:30:47;;;;;;;35.70;22.77;;;10.80;99.90;;;;;;4977440;28;20445;-71
2023/02/23 09:33:13;;;;;;;34.27;21.03;;;10.80;99.90;;;;;;4977600;28;20970;-71
2023/02/23 09:35:40;;;;;;;35.30;20.77;;;10.80;99.90;;;;;;4961255;28;20457;-71
2023/02/23 09:38:06;;;;;;;37.47;23.40;;;10.80;99.90;;;;;;4977024;28;20500;-71
2023/02/23 09:40:52;;;;;;;34.30;22.67;;;10.80;99.90;;;;;;4994080;28;20794;-71
2023/02/23 09:43:47;;;;;;;37.63;21.43;;;10.80;99.90;;;;;;4977052;28;20888;-71
2023/02/23 09:46:33;;;;;;;32.40;22.00;;;10.80;99.90;;;;;;4994531;28;20448;-71
2023/02/23 09:49:11;;;;;;;40.40;23.30;;;10.80;99.90;;;;;;4966428;28;20924;-71
2023/02/23 09:51:45;;;;;;;32.03;21.27;;;10.80;99.90;;;;;;4993946;28;20476;-71
2023/02/23 09:54:12;;;;;;;40.80;24.30;;;10.80;99.90;;;;;;4977100;28;20885;-71
2023/02/23 09:56:47;;;;;;;39.57;22.60;;;10.80;99.90;;;;;;4994490;28;20422;-71
2023/02/23 09:59:21;;;;;;;34.47;21.93;;;10.80;99.90;;;;;;4976795;28;20563;-71
2023/02/23 10:01:49;;;;;;;32.60;20.60;;;10.80;99.90;;;;;;4976838;28;20452;-71
2023/02/23 10:04:37;;;;;;;34.23;22.00;;;10.80;99.90;;;;;;4960279;28;20442;-71
2023/02/23 10:07:30;;;;;;;31.97;20.70;;;10.80;99.90;;;;;;4976069;28;20458;-70
2023/02/23 10:10:28;;;;;;;39.37;22.90;;;10.80;99.90;;;;;;4960854;28;20479;-71
2023/02/23 10:13:21;;;;;;;43.37;25.30;;;10.80;99.90;;;;;;4960751;28;21019;-71
2023/02/23 10:15:49;;;;;;;35.13;22.40;;;10.80;99.90;;;;;;4960775;28;20525;-71
2023/02/23 10:18:32;;;;;;;37.63;24.30;;;10.80;99.90;;;;;;4959437;28;20453;-72
2023/02/23 10:21:15;;;;;;;39.80;23.60;;;10.80;99.90;;;;;;4974267;28;20448;-71
2023/02/23 10:23:57;;;;;;;38.63;22.87;;;10.80;99.90;;;;;;4974151;28;20439;-71
2023/02/23 10:26:35;;;;;;;35.13;23.20;;;10.80;99.90;;;;;;4991362;28;20766;-71
2023/02/23 10:29:04;;;;;;;35.30;21.97;;;10.80;99.90;;;;;;4991774;28;20469;-72
2023/02/23 10:31:47;;;;;;;34.53;20.67;;;10.80;99.90;;;;;;4974482;28;20748;-71
2023/02/23 10:34:16;;;;;;;37.70;22.17;;;10.80;99.90;;;;;;4973999;28;20860;-71
2023/02/23 10:36:52;;;;;;;33.60;22.00;;;10.80;99.90;;;;;;4971876;28;20443;-71
2023/02/23 10:39:20;;;;;;;37.00;22.80;;;10.80;99.90;;;;;;4973826;28;20441;-71
2023/02/23 10:41:47;;;;;;;34.20;21.57;;;10.80;99.90;;;;;;4954269;28;20459;-75
2023/02/23 10:44:24;;;;;;;33.00;20.27;;;10.80;99.90;;;;;;4971696;28;20412;-72
2023/02/23 10:47:15;;;;;;;34.47;22.40;;;10.80;99.90;;;;;;4974247;28;20570;-71
2023/02/23 10:49:45;;;;;;;36.30;20.70;;;10.80;99.90;;;;;;4953470;28;20516;-72
2023/02/23 10:52:21;;;;;;;33.17;21.07;;;10.80;99.90;;;;;;4973172;28;20398;-72
2023/02/23 10:54:51;;;;;;;31.50;20.97;;;10.80;99.90;;;;;;4972840;28;20563;-71
2023/02/23 10:57:22;;;;;;;32.00;21.30;;;10.80;99.90;;;;;;4973930;28;20476;-72
2023/02/23 11:00:15;;;;;;;35.80;22.23;;;10.80;99.90;;;;;;4973524;28;20949;-72
2023/02/23 11:02:43;;;;;;;32.93;20.17;;;10.80;99.90;;;;;;4957645;28;20514;-72
2023/02/23 11:05:30;;;;;;;31.80;19.10;;;10.80;99.90;;;;;;4973408;28;20436;-72
2023/02/23 11:08:15;;;;;;;36.03;21.33;;;10.80;99.90;;;;;;4973523;28;20800;-72
2023/02/23 11:10:41;;;;;;;33.20;19.43;;;10.80;99.90;;;;;;4990619;28;21570;-72
2023/02/23 11:13:41;;;;;;;35.60;20.33;;;10.80;99.90;;;;;;4990739;28;20805;-72
2023/02/23 11:16:22;;;;;;;34.40;20.33;;;10.80;99.90;;;;;;4972372;28;20894;-72
2023/02/23 11:18:57;;;;;;;34.30;21.00;;;10.80;99.90;;;;;;4973337;28;20450;-71
2023/02/23 11:21:32;;;;;;;39.00;21.00;;;10.80;99.90;;;;;;4973299;28;20482;-72
2023/02/23 11:24:21;;;;;;;36.37;22.10;;;10.80;99.90;;;;;;4973090;28;20477;-72
2023/02/23 11:26:50;;;;;;;33.70;21.27;;;10.80;99.90;;;;;;4971020;28;20447;-72
2023/02/23 11:29:34;;;;;;;36.47;21.87;;;10.80;99.90;;;;;;4938289;28;20446;-72
2023/02/23 11:32:12;;;;;;;34.60;22.43;;;10.80;99.90;;;;;;4953855;28;20450;-72
2023/02/23 11:34:42;;;;;;;34.13;20.80;;;10.80;99.90;;;;;;4953796;28;20540;-71
2023/02/23 11:37:13;;;;;;;36.27;21.57;;;10.80;99.90;;;;;;4969381;28;20545;-72
2023/02/23 11:39:54;;;;;;;31.33;19.90;;;10.80;99.90;;;;;;4962096;28;20437;-72
2023/02/23 11:42:32;;;;;;;34.07;19.33;;;10.80;99.90;;;;;;4972665;28;20452;-72
2023/02/23 11:45:15;;;;;;;36.73;21.03;;;10.80;99.90;;;;;;4972283;28;20434;-71
2023/02/23 11:47:47;;;;;;;35.07;21.03;;;10.80;99.90;;;;;;4990383;28;21069;-72
2023/02/23 11:50:23;;;;;;;35.47;19.93;;;10.80;99.90;;;;;;4972952;28;20504;-72
2023/02/23 11:53:18;;;;;;;34.33;19.67;;;10.80;99.90;;;;;;4956693;28;20527;-72
2023/02/23 11:55:49;;;;;;;30.40;19.30;;;10.80;99.90;;;;;;4966518;28;20504;-72
2023/02/23 11:58:34;;;;;;;32.80;19.37;;;10.80;99.90;;;;;;4987371;28;20449;-72
2023/02/23 12:01:10;;;;;;;31.20;19.90;;;10.80;99.90;;;;;;4972792;28;20458;-72
2023/02/23 12:03:48;;;;;;;32.10;19.40;;;10.80;99.90;;;;;;4969186;28;20432;-71
2023/02/23 12:06:32;;;;;;;30.40;19.73;;;10.80;99.90;;;;;;4985288;28;20418;-71
2023/02/23 12:09:19;;;;;;;35.30;20.80;;;10.80;99.90;;;;;;4989255;28;20489;-73
2023/02/23 12:12:05;;;;;;;30.90;19.17;;;10.80;99.90;;;;;;4991822;28;20441;-72
2023/02/23 12:14:39;;;;;;;32.47;20.47;;;10.80;99.90;;;;;;4958126;28;20462;-72
2023/02/23 12:17:30;;;;;;;30.93;18.53;;;10.80;99.90;;;;;;4955871;28;20434;-72
2023/02/23 12:20:04;;;;;;;31.67;18.27;;;10.80;99.90;;;;;;4958078;28;20445;-72
2023/02/23 12:22:43;;;;;;;32.77;18.40;;;10.80;99.90;;;;;;4992050;28;20799;-72
2023/02/23 12:25:31;;;;;;;31.33;18.90;;;10.80;99.90;;;;;;4990704;28;20394;-72
2023/02/23 12:28:29;;;;;;;32.83;18.70;;;10.80;99.90;;;;;;4975209;28;20435;-72
2023/02/23 12:30:56;;;;;;;28.10;17.80;;;10.80;99.90;;;;;;4972777;28;20516;-73
2023/02/23 12:33:45;;;;;;;30.03;18.67;;;10.80;99.90;;;;;;4990020;28;20798;-74
2023/02/23 12:36:11;;;;;;;29.30;18.37;;;10.80;99.90;;;;;;4995667;28;20985;-73
2023/02/23 12:38:59;;;;;;;30.47;18.77;;;10.70;99.90;;;;;;4978397;28;20441;-73
2023/02/23 12:41:31;;;;;;;30.93;18.60;;;10.70;99.90;;;;;;4994666;28;20429;-73
2023/02/23 12:44:42;;;;;;;29.37;17.80;;;10.80;99.90;;;;;;4977689;28;20495;-73
2023/02/23 12:47:36;;;;;;;30.30;18.27;;;10.70;99.90;;;;;;4978429;28;20449;-73
2023/02/23 12:50:12;;;;;;;29.63;18.10;;;10.70;99.90;;;;;;4994801;28;20438;-73
2023/02/23 12:53:05;;;;;;;25.80;15.87;;;10.70;99.90;;;;;;4978008;28;20804;-72
2023/02/23 12:55:55;;;;;;;28.27;17.00;;;10.70;99.90;;;;;;4977341;28;20524;-73
2023/02/23 12:58:45;;;;;;;28.80;18.13;;;10.70;99.90;;;;;;4994613;28;20931;-73
2023/02/23 13:01:20;;;;;;;26.07;16.13;;;10.70;99.90;;;;;;4993077;28;20822;-72
2023/02/23 13:04:14;;;;;;;24.53;15.70;;;10.70;99.90;;;;;;4977697;28;20447;-72
2023/02/23 13:07:15;;;;;;;26.57;15.70;;;10.70;99.90;;;;;;4977568;28;20504;-73
2023/02/23 13:09:53;;;;;;;28.70;17.17;;;10.70;99.90;;;;;;4992711;28;20796;-72
2023/02/23 13:12:49;;;;;;;28.30;16.60;;;10.70;99.90;;;;;;4961634;28;21032;-73
2023/02/23 13:15:18;;;;;;;26.67;16.40;;;10.70;99.90;;;;;;4944911;28;20465;-74
2023/02/23 13:18:08;;;;;;;25.90;16.43;;;10.70;99.90;;;;;;4994957;28;20437;-73
2023/02/23 13:20:43;;;;;;;23.37;14.93;;;10.70;99.90;;;;;;4977380;28;20428;-72
2023/02/23 13:23:34;;;;;;;22.53;14.47;;;10.70;99.90;;;;;;4961238;28;20406;-73
2023/02/23 13:26:28;;;;;;;22.90;15.67;;;10.70;99.90;;;;;;4976889;28;20418;-71
2023/02/23 13:28:57;;;;;;;24.93;15.50;;;10.70;99.90;;;;;;4994730;28;20419;-72
2023/02/23 13:31:32;;;;;;;23.33;14.67;;;10.70;99.90;;;;;;4977507;28;20681;-72
2023/02/23 13:34:03;;;;;;;23.67;14.10;;;10.80;99.90;;;;;;4977263;28;20421;-72
2023/02/23 13:36:32;;;;;;;21.33;14.03;;;10.80;99.90;;;;;;4994522;28;20478;-72
2023/02/23 13:39:04;;;;;;;23.93;15.53;;;10.80;99.90;;;;;;4993634;28;20464;-72
2023/02/23 13:41:39;;;;;;;25.43;16.23;;;10.80;99.90;;;;;;4973863;28;20406;-72
2023/02/23 13:44:32;;;;;;;22.40;14.00;;;10.80;99.90;;;;;;4973888;28;20879;-73
2023/02/23 13:47:29;;;;;;;24.13;14.67;;;10.80;99.90;;;;;;4964388;28;20601;-71
2023/02/23 13:50:09;;;;;;;23.60;14.37;;;10.80;99.90;;;;;;4973636;28;20398;-72
2023/02/23 13:52:44;;;;;;;24.40;15.00;;;10.80;99.90;;;;;;4960301;28;20460;-73
2023/02/23 13:55:25;;;;;;;25.77;15.97;;;10.80;99.90;;;;;;4994464;28;20437;-72
2023/02/23 13:58:28;;;;;;;22.50;14.97;;;10.80;99.90;;;;;;4976677;28;20442;-71
2023/02/23 14:01:13;;;;;;;24.83;13.77;;;10.80;99.90;;;;;;4918027;29;20433;-71
2023/02/23 14:03:46;;;;;;;23.80;14.40;;;10.80;99.90;;;;;;4958032;28;20448;-72
2023/02/23 14:06:17;;;;;;;24.43;15.00;;;10.80;99.90;;;;;;4973582;28;20407;-72
2023/02/23 14:08:51;;;;;;;29.70;14.70;;;10.80;99.90;;;;;;4974656;28;20430;-71
2023/02/23 14:11:40;;;;;;;24.90;13.93;;;10.70;99.90;;;;;;4957358;28;20411;-72
2023/02/23 14:14:28;;;;;;;24.20;15.27;;;10.80;99.90;;;;;;4974718;28;20426;-72
2023/02/23 14:17:08;;;;;;;27.57;15.63;;;10.70;99.90;;;;;;4973316;28;20844;-72
2023/02/23 14:19:39;;;;;;;27.40;14.63;;;10.70;99.90;;;;;;4979055;28;20445;-71
2023/02/23 14:22:13;;;;;;;25.77;14.47;;;10.70;99.90;;;;;;4993833;28;20410;-72